createdAt,value
2017-12-03T00:00:15.902Z,14.80
2017-12-03T00:01:15.905Z,13.50
2017-12-03T00:02:15.897Z,13.20
2017-12-03T00:03:15.885Z,14.10
2017-12-03T00:04:15.883Z,13.30
2017-12-03T00:05:15.879Z,13.30
2017-12-03T00:06:15.869Z,13.40
2017-12-03T00:07:15.870Z,13.30
2017-12-03T00:08:15.862Z,14.10
2017-12-03T00:09:15.863Z,13.30
2017-12-03T00:10:15.851Z,14.10
2017-12-03T00:11:15.845Z,13.30
2017-12-03T00:12:15.841Z,13.90
2017-12-03T00:13:15.836Z,13.90
2017-12-03T00:14:15.826Z,14.00
2017-12-03T00:15:15.830Z,12.80
2017-12-03T00:16:15.822Z,13.20
2017-12-03T00:17:15.817Z,14.60
2017-12-03T00:18:15.812Z,15.20
2017-12-03T00:19:15.803Z,13.40
2017-12-03T00:20:15.801Z,13.50
2017-12-03T00:21:15.796Z,13.50
2017-12-03T00:22:15.800Z,13.60
2017-12-03T00:23:15.784Z,13.90
2017-12-03T00:24:15.784Z,15.30
2017-12-03T00:25:15.773Z,15.20
2017-12-03T00:26:15.766Z,13.60
2017-12-03T00:27:15.764Z,14.00
2017-12-03T00:28:15.757Z,13.10
2017-12-03T00:29:15.750Z,13.30
2017-12-03T00:30:15.751Z,14.00
2017-12-03T00:31:15.741Z,14.10
2017-12-03T00:32:15.734Z,14.60
2017-12-03T00:33:15.732Z,13.10
2017-12-03T00:34:15.725Z,13.90
2017-12-03T00:35:15.723Z,14.00
2017-12-03T00:36:15.718Z,13.30
2017-12-03T00:37:15.710Z,13.30
2017-12-03T00:38:15.715Z,14.10
2017-12-03T00:39:15.708Z,14.50
2017-12-03T00:40:15.700Z,13.30
2017-12-03T00:41:15.691Z,12.90
2017-12-03T00:42:15.681Z,14.90
2017-12-03T00:43:15.683Z,14.00
2017-12-03T00:44:15.680Z,12.90
2017-12-03T00:45:15.688Z,13.70
2017-12-03T00:46:15.670Z,13.80
2017-12-03T00:47:15.662Z,14.00
2017-12-03T00:48:15.656Z,13.00
2017-12-03T00:49:15.652Z,13.00
2017-12-03T00:50:15.645Z,13.70
2017-12-03T00:51:15.639Z,12.90
2017-12-03T00:52:15.633Z,12.70
2017-12-03T00:53:15.631Z,12.60
2017-12-03T00:54:15.632Z,13.60
2017-12-03T00:55:15.621Z,12.80
2017-12-03T00:56:15.615Z,13.90
2017-12-03T00:57:15.628Z,13.00
2017-12-03T00:58:15.606Z,13.80
2017-12-03T00:59:15.608Z,13.60
2017-12-03T01:00:15.597Z,14.40
2017-12-03T01:01:15.590Z,13.70
2017-12-03T01:02:15.584Z,12.80
2017-12-03T01:03:15.574Z,12.80
2017-12-03T01:04:15.570Z,13.80
2017-12-03T01:05:15.565Z,13.00
2017-12-03T01:06:15.563Z,12.40
2017-12-03T01:07:15.557Z,11.80
2017-12-03T01:08:15.556Z,12.70
2017-12-03T01:09:15.551Z,12.30
2017-12-03T01:10:15.541Z,13.70
2017-12-03T01:11:15.536Z,13.80
2017-12-03T01:12:15.531Z,13.60
2017-12-03T01:13:15.530Z,13.00
2017-12-03T01:14:15.519Z,12.60
2017-12-03T01:15:15.521Z,13.80
2017-12-03T01:16:15.539Z,12.70
2017-12-03T01:17:15.504Z,14.60
2017-12-03T01:18:15.505Z,13.60
2017-12-03T01:19:15.495Z,15.70
2017-12-03T01:20:15.489Z,15.70
2017-12-03T01:21:15.489Z,13.70
2017-12-03T01:22:15.477Z,13.60
2017-12-03T01:23:15.469Z,12.90
2017-12-03T01:24:15.471Z,14.10
2017-12-03T01:25:15.461Z,13.40
2017-12-03T01:26:15.462Z,13.40
2017-12-03T01:27:15.471Z,12.90
2017-12-03T01:28:15.455Z,13.40
2017-12-03T01:29:15.447Z,13.40
2017-12-03T01:30:15.461Z,12.30
2017-12-03T01:31:15.434Z,13.10
2017-12-03T01:32:15.429Z,14.30
2017-12-03T01:33:15.429Z,13.70
2017-12-03T01:34:15.431Z,13.90
2017-12-03T01:35:15.418Z,12.90
2017-12-03T01:36:15.407Z,13.80
2017-12-03T01:37:15.402Z,13.50
2017-12-03T01:38:15.408Z,14.00
2017-12-03T01:39:15.391Z,16.30
2017-12-03T01:40:15.389Z,14.00
2017-12-03T01:41:15.381Z,13.60
2017-12-03T01:42:15.389Z,13.50
2017-12-03T01:43:15.366Z,14.70
2017-12-03T01:44:15.375Z,15.10
2017-12-03T01:45:15.357Z,17.60
2017-12-03T01:46:15.350Z,14.60
2017-12-03T01:47:15.351Z,14.00
2017-12-03T01:48:15.348Z,14.70
2017-12-03T01:49:15.335Z,14.90
2017-12-03T01:50:15.333Z,14.30
2017-12-03T01:51:15.327Z,14.00
2017-12-03T01:52:15.323Z,14.10
2017-12-03T01:53:15.317Z,14.90
2017-12-03T01:54:15.328Z,13.50
2017-12-03T01:55:15.325Z,13.70
2017-12-03T01:56:15.302Z,13.40
2017-12-03T01:57:15.294Z,14.50
2017-12-03T01:58:15.292Z,15.30
2017-12-03T01:59:15.288Z,15.80
2017-12-03T02:00:15.280Z,13.90
2017-12-03T02:01:15.278Z,13.40
2017-12-03T02:02:15.270Z,14.70
2017-12-03T02:03:15.267Z,14.10
2017-12-03T02:04:15.261Z,14.70
2017-12-03T02:05:15.260Z,14.10
2017-12-03T02:06:15.253Z,13.10
2017-12-03T02:07:15.246Z,13.70
2017-12-03T02:08:15.237Z,14.80
2017-12-03T02:09:15.231Z,13.80
2017-12-03T02:10:15.230Z,14.60
2017-12-03T02:11:15.232Z,16.30
2017-12-03T02:12:15.215Z,14.00
2017-12-03T02:13:15.228Z,13.80
2017-12-03T02:14:15.208Z,14.20
2017-12-03T02:15:15.201Z,14.90
2017-12-03T02:16:15.252Z,13.80
2017-12-03T02:17:15.243Z,14.90
2017-12-03T02:18:15.194Z,14.80
2017-12-03T02:19:15.182Z,14.30
2017-12-03T02:20:15.223Z,14.00
2017-12-03T02:21:15.188Z,14.70
2017-12-03T02:22:15.166Z,14.90
2017-12-03T02:23:15.160Z,13.20
2017-12-03T02:24:15.214Z,15.60
2017-12-03T02:25:15.157Z,14.70
2017-12-03T02:26:15.143Z,14.00
2017-12-03T02:27:15.143Z,14.40
2017-12-03T02:28:15.138Z,15.00
2017-12-03T02:29:15.141Z,14.40
2017-12-03T02:30:15.125Z,15.00
2017-12-03T02:31:15.186Z,14.10
2017-12-03T02:32:15.120Z,15.00
2017-12-03T02:33:15.108Z,15.00
2017-12-03T02:34:15.114Z,14.50
2017-12-03T02:35:15.103Z,15.00
2017-12-03T02:36:15.093Z,13.00
2017-12-03T02:37:15.086Z,15.00
2017-12-03T02:38:15.079Z,15.50
2017-12-03T02:39:15.085Z,13.90
2017-12-03T02:40:15.076Z,14.80
2017-12-03T02:41:15.071Z,14.50
2017-12-03T02:42:15.064Z,13.60
2017-12-03T02:43:15.081Z,14.10
2017-12-03T02:44:15.052Z,13.80
2017-12-03T02:45:15.049Z,14.40
2017-12-03T02:46:15.043Z,14.10
2017-12-03T02:47:15.053Z,14.10
2017-12-03T02:48:15.031Z,14.60
2017-12-03T02:49:15.028Z,14.40
2017-12-03T02:50:15.027Z,14.90
2017-12-03T02:51:15.015Z,13.60
2017-12-03T02:52:15.015Z,14.20
2017-12-03T02:53:15.002Z,15.10
2017-12-03T02:54:14.998Z,14.10
2017-12-03T02:55:14.992Z,15.10
2017-12-03T02:56:14.986Z,14.00
2017-12-03T02:57:14.982Z,14.80
2017-12-03T02:58:14.973Z,14.90
2017-12-03T02:59:14.983Z,14.80
2017-12-03T03:00:14.967Z,14.60
2017-12-03T03:01:14.962Z,15.90
2017-12-03T03:02:14.956Z,13.90
2017-12-03T03:03:14.953Z,13.80
2017-12-03T03:04:14.944Z,15.70
2017-12-03T03:05:14.942Z,15.10
2017-12-03T03:06:14.933Z,14.00
2017-12-03T03:07:14.947Z,15.10
2017-12-03T03:08:14.924Z,15.30
2017-12-03T03:09:14.915Z,15.30
2017-12-03T03:10:14.913Z,14.60
2017-12-03T03:11:14.910Z,13.70
2017-12-03T03:12:14.902Z,13.60
2017-12-03T03:13:14.894Z,15.40
2017-12-03T03:14:14.903Z,14.00
2017-12-03T03:15:14.886Z,14.80
2017-12-03T03:16:14.877Z,13.90
2017-12-03T03:17:14.877Z,13.90
2017-12-03T03:18:14.872Z,14.30
2017-12-03T03:19:14.864Z,14.20
2017-12-03T03:20:14.866Z,15.20
2017-12-03T03:21:14.870Z,13.90
2017-12-03T03:22:14.849Z,14.20
2017-12-03T03:23:14.843Z,13.90
2017-12-03T03:24:14.839Z,14.70
2017-12-03T03:25:14.833Z,13.30
2017-12-03T03:26:14.826Z,13.80
2017-12-03T03:27:14.823Z,14.00
2017-12-03T03:28:14.816Z,14.90
2017-12-03T03:29:14.844Z,14.40
2017-12-03T03:30:14.815Z,14.20
2017-12-03T03:31:14.800Z,13.80
2017-12-03T03:32:14.799Z,12.90
2017-12-03T03:33:14.793Z,13.40
2017-12-03T03:34:14.780Z,12.70
2017-12-03T03:35:14.776Z,12.10
2017-12-03T03:36:14.771Z,12.80
2017-12-03T03:37:14.767Z,13.00
2017-12-03T03:38:14.762Z,13.70
2017-12-03T03:39:14.761Z,13.10
2017-12-03T03:40:14.763Z,13.10
2017-12-03T03:41:14.751Z,12.80
2017-12-03T03:42:14.740Z,12.90
2017-12-03T03:43:14.746Z,13.10
2017-12-03T03:44:14.734Z,12.60
2017-12-03T03:45:14.730Z,12.90
2017-12-03T03:46:14.719Z,12.30
2017-12-03T03:47:14.719Z,13.70
2017-12-03T03:48:14.710Z,13.00
2017-12-03T03:49:14.702Z,12.40
2017-12-03T03:50:14.708Z,12.50
2017-12-03T03:51:14.691Z,12.30
2017-12-03T03:52:14.686Z,13.30
2017-12-03T03:53:14.685Z,12.00
2017-12-03T03:54:14.673Z,12.90
2017-12-03T03:55:14.670Z,13.00
2017-12-03T03:56:14.670Z,12.40
2017-12-03T03:57:14.660Z,13.00
2017-12-03T03:58:14.654Z,13.10
2017-12-03T03:59:14.646Z,12.50
2017-12-03T04:00:14.647Z,12.60
2017-12-03T04:01:14.640Z,12.40
2017-12-03T04:02:14.642Z,13.50
2017-12-03T04:03:14.630Z,12.60
2017-12-03T04:04:14.663Z,12.30
2017-12-03T04:05:14.620Z,12.10
2017-12-03T04:06:14.613Z,12.90
2017-12-03T04:07:14.606Z,11.70
2017-12-03T04:08:14.600Z,12.10
2017-12-03T04:09:14.598Z,12.50
2017-12-03T04:10:14.589Z,12.20
2017-12-03T04:11:14.587Z,12.00
2017-12-03T04:12:14.581Z,12.20
2017-12-03T04:13:14.580Z,12.30
2017-12-03T04:14:14.578Z,11.50
2017-12-03T04:15:14.564Z,11.70
2017-12-03T04:16:14.559Z,12.60
2017-12-03T04:17:14.558Z,11.60
2017-12-03T04:18:14.566Z,11.40
2017-12-03T04:19:14.555Z,11.10
2017-12-03T04:20:14.543Z,12.30
2017-12-03T04:21:14.536Z,11.10
2017-12-03T04:22:14.533Z,12.60
2017-12-03T04:23:14.528Z,10.40
2017-12-03T04:24:14.522Z,11.60
2017-12-03T04:25:14.511Z,10.90
2017-12-03T04:26:14.509Z,10.70
2017-12-03T04:27:14.502Z,10.60
2017-12-03T04:28:14.494Z,10.60
2017-12-03T04:29:14.495Z,10.10
2017-12-03T04:30:14.487Z,11.30
2017-12-03T04:31:14.482Z,11.40
2017-12-03T04:32:14.491Z,10.80
2017-12-03T04:33:14.469Z,11.00
2017-12-03T04:34:14.468Z,12.60
2017-12-03T04:35:14.466Z,10.40
2017-12-03T04:36:14.455Z,10.20
2017-12-03T04:37:14.452Z,11.60
2017-12-03T04:38:14.443Z,11.50
2017-12-03T04:39:14.438Z,10.00
2017-12-03T04:40:14.436Z,10.90
2017-12-03T04:41:14.436Z,10.60
2017-12-03T04:42:14.429Z,10.40
2017-12-03T04:43:14.430Z,10.30
2017-12-03T04:44:14.413Z,10.50
2017-12-03T04:45:14.407Z,9.60
2017-12-03T04:46:14.402Z,10.30
2017-12-03T04:47:14.411Z,9.80
2017-12-03T04:48:14.389Z,9.90
2017-12-03T04:49:14.387Z,10.40
2017-12-03T04:50:14.382Z,10.50
2017-12-03T04:51:14.380Z,10.20
2017-12-03T04:52:14.372Z,10.10
2017-12-03T04:53:14.366Z,10.50
2017-12-03T04:54:14.357Z,10.00
2017-12-03T04:55:14.355Z,13.00
2017-12-03T04:56:14.351Z,14.00
2017-12-03T04:57:14.343Z,16.20
2017-12-03T04:58:14.337Z,16.90
2017-12-03T04:59:14.341Z,13.60
2017-12-03T05:00:14.326Z,14.30
2017-12-03T05:01:14.331Z,17.70
2017-12-03T05:02:14.320Z,21.20
2017-12-03T05:03:14.310Z,17.10
2017-12-03T05:04:14.317Z,12.20
2017-12-03T05:05:14.308Z,12.20
2017-12-03T05:06:14.295Z,11.00
2017-12-03T05:07:14.287Z,10.90
2017-12-03T05:08:14.286Z,10.10
2017-12-03T05:09:14.285Z,10.10
2017-12-03T05:10:14.280Z,11.00
2017-12-03T05:11:14.272Z,10.20
2017-12-03T05:12:14.269Z,10.80
2017-12-03T05:13:14.260Z,10.70
2017-12-03T05:14:14.254Z,8.70
2017-12-03T05:15:14.254Z,9.10
2017-12-03T05:16:14.247Z,9.90
2017-12-03T05:17:14.268Z,8.90
2017-12-03T05:18:14.239Z,8.50
2017-12-03T05:19:14.228Z,12.60
2017-12-03T05:20:14.235Z,12.20
2017-12-03T05:21:14.223Z,10.90
2017-12-03T05:22:14.216Z,10.90
2017-12-03T05:23:14.206Z,12.50
2017-12-03T05:24:14.201Z,13.80
2017-12-03T05:25:14.205Z,11.90
2017-12-03T05:26:14.188Z,9.10
2017-12-03T05:27:14.225Z,9.70
2017-12-03T05:28:14.206Z,8.90
2017-12-03T05:29:14.179Z,7.60
2017-12-03T05:30:14.168Z,7.70
2017-12-03T05:31:14.160Z,8.40
2017-12-03T05:32:14.160Z,8.80
2017-12-03T05:33:14.156Z,8.90
2017-12-03T05:34:14.144Z,8.90
2017-12-03T05:35:14.139Z,8.80
2017-12-03T05:36:14.143Z,8.00
2017-12-03T05:37:14.134Z,8.80
2017-12-03T05:38:14.126Z,9.80
2017-12-03T05:39:14.120Z,8.50
2017-12-03T05:40:14.117Z,8.50
2017-12-03T05:41:14.107Z,8.20
2017-12-03T05:42:14.111Z,9.00
2017-12-03T05:43:14.108Z,8.30
2017-12-03T05:44:14.093Z,8.20
2017-12-03T05:45:14.089Z,8.60
2017-12-03T05:46:14.083Z,9.50
2017-12-03T05:47:14.084Z,8.50
2017-12-03T05:48:14.075Z,8.00
2017-12-03T05:49:14.068Z,7.70
2017-12-03T05:50:14.062Z,7.90
2017-12-03T05:51:14.074Z,8.10
2017-12-03T05:52:14.051Z,7.20
2017-12-03T05:53:14.044Z,7.20
2017-12-03T05:54:14.040Z,6.90
2017-12-03T05:55:14.040Z,7.00
2017-12-03T05:56:14.040Z,7.60
2017-12-03T05:57:14.027Z,7.50
2017-12-03T05:58:14.021Z,7.90
2017-12-03T05:59:14.021Z,7.20
2017-12-03T06:00:14.016Z,7.00
2017-12-03T06:01:14.003Z,7.10
2017-12-03T06:02:13.997Z,7.70
2017-12-03T06:03:13.995Z,6.50
2017-12-03T06:04:13.992Z,7.20
2017-12-03T06:05:13.981Z,7.00
2017-12-03T06:06:13.980Z,6.80
2017-12-03T06:07:13.974Z,6.90
2017-12-03T06:08:13.965Z,7.70
2017-12-03T06:09:13.962Z,7.50
2017-12-03T06:10:13.956Z,7.90
2017-12-03T06:11:13.949Z,7.30
2017-12-03T06:12:13.940Z,7.50
2017-12-03T06:13:13.947Z,6.80
2017-12-03T06:14:13.940Z,7.80
2017-12-03T06:15:13.932Z,8.30
2017-12-03T06:16:13.923Z,6.80
2017-12-03T06:17:13.917Z,7.20
2017-12-03T06:18:13.911Z,6.40
2017-12-03T06:19:13.909Z,6.60
2017-12-03T06:20:13.905Z,6.40
2017-12-03T06:21:13.896Z,6.70
2017-12-03T06:22:13.904Z,6.70
2017-12-03T06:23:13.886Z,6.30
2017-12-03T06:24:13.883Z,6.30
2017-12-03T06:25:13.875Z,6.70
2017-12-03T06:26:13.871Z,6.00
2017-12-03T06:27:13.871Z,6.70
2017-12-03T06:28:13.869Z,6.10
2017-12-03T06:29:13.862Z,6.40
2017-12-03T06:30:13.848Z,7.30
2017-12-03T06:31:13.842Z,6.70
2017-12-03T06:32:13.838Z,6.30
2017-12-03T06:33:13.833Z,7.00
2017-12-03T06:34:13.831Z,7.40
2017-12-03T06:35:13.821Z,7.60
2017-12-03T06:36:13.821Z,6.80
2017-12-03T06:37:13.810Z,6.40
2017-12-03T06:38:13.807Z,7.20
2017-12-03T06:39:13.804Z,7.10
2017-12-03T06:40:13.803Z,7.40
2017-12-03T06:41:13.792Z,7.00
2017-12-03T06:42:13.781Z,6.50
2017-12-03T06:43:13.779Z,6.90
2017-12-03T06:44:13.771Z,6.40
2017-12-03T06:45:13.777Z,7.40
2017-12-03T06:46:13.760Z,6.70
2017-12-03T06:47:13.794Z,6.50
2017-12-03T06:48:13.751Z,6.50
2017-12-03T06:49:13.767Z,7.00
2017-12-03T06:50:13.745Z,6.20
2017-12-03T06:51:13.745Z,7.20
2017-12-03T06:52:13.731Z,6.60
2017-12-03T06:53:13.727Z,6.90
2017-12-03T06:54:13.718Z,5.80
2017-12-03T06:55:13.718Z,6.50
2017-12-03T06:56:13.712Z,6.60
2017-12-03T06:57:13.711Z,6.50
2017-12-03T06:58:13.700Z,6.80
2017-12-03T06:59:13.696Z,6.50
2017-12-03T07:00:13.688Z,7.20
2017-12-03T07:01:13.681Z,6.70
2017-12-03T07:02:13.676Z,6.50
2017-12-03T07:03:13.671Z,6.20
2017-12-03T07:04:13.671Z,7.20
2017-12-03T07:05:13.665Z,10.00
2017-12-03T07:06:13.656Z,8.80
2017-12-03T07:07:13.653Z,11.00
2017-12-03T07:08:13.655Z,10.10
2017-12-03T07:09:13.643Z,10.80
2017-12-03T07:10:13.656Z,11.10
2017-12-03T07:11:13.665Z,11.30
2017-12-03T07:12:13.633Z,9.90
2017-12-03T07:13:13.618Z,10.30
2017-12-03T07:14:13.614Z,34.80
2017-12-03T07:15:13.611Z,39.30
2017-12-03T07:16:13.617Z,29.80
2017-12-03T07:17:13.600Z,30.30
2017-12-03T07:18:13.593Z,39.90
2017-12-03T07:19:13.589Z,29.20
2017-12-03T07:20:13.583Z,18.30
2017-12-03T07:21:13.575Z,12.90
2017-12-03T07:22:13.573Z,16.60
2017-12-03T07:23:13.567Z,21.00
2017-12-03T07:24:13.563Z,13.60
2017-12-03T07:25:13.557Z,13.30
2017-12-03T07:26:13.551Z,10.70
2017-12-03T07:27:13.553Z,10.20
2017-12-03T07:28:13.592Z,9.40
2017-12-03T07:29:13.533Z,8.80
2017-12-03T07:30:13.533Z,7.50
2017-12-03T07:31:13.529Z,7.80
2017-12-03T07:32:13.519Z,7.70
2017-12-03T07:33:13.517Z,8.20
2017-12-03T07:34:14.426Z,7.60
2017-12-03T07:35:13.501Z,7.00
2017-12-03T07:36:13.502Z,6.60
2017-12-03T07:37:13.494Z,6.90
2017-12-03T07:38:13.494Z,6.90
2017-12-03T07:39:13.481Z,7.00
2017-12-03T07:40:13.479Z,6.30
2017-12-03T07:41:13.470Z,7.60
2017-12-03T07:42:13.470Z,8.00
2017-12-03T07:43:13.459Z,6.90
2017-12-03T07:44:13.460Z,6.90
2017-12-03T07:45:13.459Z,6.40
2017-12-03T07:46:13.451Z,6.60
2017-12-03T07:47:13.444Z,7.10
2017-12-03T07:48:13.441Z,7.80
2017-12-03T07:49:13.431Z,7.10
2017-12-03T07:50:13.421Z,7.10
2017-12-03T07:51:13.422Z,6.30
2017-12-03T07:52:13.417Z,6.30
2017-12-03T07:53:13.407Z,6.50
2017-12-03T07:54:13.405Z,6.80
2017-12-03T07:55:13.399Z,6.70
2017-12-03T07:56:13.398Z,6.80
2017-12-03T07:57:13.391Z,7.70
2017-12-03T07:58:13.386Z,7.30
2017-12-03T07:59:13.381Z,7.40
2017-12-03T08:00:13.371Z,6.40
2017-12-03T08:01:13.366Z,6.50
2017-12-03T08:02:13.370Z,6.30
2017-12-03T08:03:13.386Z,6.50
2017-12-03T08:04:13.352Z,6.50
2017-12-03T08:05:13.351Z,6.10
2017-12-03T08:06:13.339Z,6.10
2017-12-03T08:07:13.333Z,5.70
2017-12-03T08:08:13.335Z,7.20
2017-12-03T08:09:13.327Z,6.00
2017-12-03T08:10:13.326Z,6.70
2017-12-03T08:11:13.316Z,7.50
2017-12-03T08:12:13.319Z,7.30
2017-12-03T08:13:13.306Z,8.10
2017-12-03T08:14:13.301Z,8.10
2017-12-03T08:15:13.293Z,9.20
2017-12-03T08:16:13.292Z,8.50
2017-12-03T08:17:13.288Z,8.90
2017-12-03T08:18:13.280Z,9.50
2017-12-03T08:19:13.288Z,8.00
2017-12-03T08:20:13.271Z,8.20
2017-12-03T08:21:13.265Z,8.10
2017-12-03T08:22:13.257Z,9.40
2017-12-03T08:23:13.256Z,8.80
2017-12-03T08:24:13.247Z,8.30
2017-12-03T08:25:13.255Z,8.30
2017-12-03T08:26:13.239Z,8.10
2017-12-03T08:27:13.239Z,8.10
2017-12-03T08:28:13.230Z,7.80
2017-12-03T08:29:13.231Z,8.00
2017-12-03T08:30:13.222Z,7.80
2017-12-03T08:31:13.210Z,7.50
2017-12-03T08:32:13.210Z,8.10
2017-12-03T08:33:13.202Z,10.80
2017-12-03T08:34:13.200Z,11.60
2017-12-03T08:35:13.198Z,12.00
2017-12-03T08:36:13.185Z,11.60
2017-12-03T08:37:13.187Z,16.70
2017-12-03T08:38:13.176Z,12.00
2017-12-03T08:39:13.177Z,10.40
2017-12-03T08:40:13.176Z,10.20
2017-12-03T08:41:13.164Z,11.10
2017-12-03T08:42:13.158Z,10.60
2017-12-03T08:43:13.150Z,9.90
2017-12-03T08:44:13.148Z,8.70
2017-12-03T08:45:13.140Z,7.80
2017-12-03T08:46:13.142Z,7.10
2017-12-03T08:47:13.133Z,7.10
2017-12-03T08:48:13.129Z,6.00
2017-12-03T08:49:13.131Z,6.80
2017-12-03T08:50:13.118Z,6.00
2017-12-03T08:51:13.111Z,5.20
2017-12-03T08:52:13.114Z,6.20
2017-12-03T08:53:13.108Z,6.00
2017-12-03T08:54:13.169Z,6.30
2017-12-03T08:55:13.088Z,6.20
2017-12-03T08:56:13.087Z,7.00
2017-12-03T08:57:13.085Z,6.60
2017-12-03T08:58:13.079Z,6.00
2017-12-03T08:59:13.074Z,7.00
2017-12-03T09:00:13.066Z,5.80
2017-12-03T09:01:13.063Z,6.20
2017-12-03T09:02:13.055Z,6.00
2017-12-03T09:03:13.047Z,5.50
2017-12-03T09:04:13.051Z,6.70
2017-12-03T09:05:13.039Z,5.90
2017-12-03T09:06:13.043Z,6.30
2017-12-03T09:07:13.035Z,6.20
2017-12-03T09:08:13.038Z,7.00
2017-12-03T09:09:13.022Z,6.40
2017-12-03T09:10:13.018Z,7.10
2017-12-03T09:11:13.014Z,6.50
2017-12-03T09:12:13.012Z,6.30
2017-12-03T09:13:13.010Z,6.40
2017-12-03T09:14:12.997Z,7.10
2017-12-03T09:15:12.988Z,6.70
2017-12-03T09:16:12.986Z,6.60
2017-12-03T09:17:12.978Z,5.80
2017-12-03T09:18:12.973Z,6.00
2017-12-03T09:19:12.967Z,6.70
2017-12-03T09:20:12.964Z,7.90
2017-12-03T09:21:12.960Z,7.20
2017-12-03T09:22:12.957Z,7.50
2017-12-03T09:23:12.946Z,7.40
2017-12-03T09:24:12.947Z,8.30
2017-12-03T09:25:12.938Z,9.20
2017-12-03T09:26:12.940Z,7.90
2017-12-03T09:27:12.929Z,7.70
2017-12-03T09:28:12.928Z,6.50
2017-12-03T09:29:12.935Z,6.90
2017-12-03T09:30:12.914Z,7.10
2017-12-03T09:31:12.910Z,6.20
2017-12-03T09:32:12.902Z,6.00
2017-12-03T09:33:12.903Z,6.50
2017-12-03T09:34:12.902Z,17.40
2017-12-03T09:35:12.940Z,13.70
2017-12-03T09:36:12.883Z,7.00
2017-12-03T09:37:12.888Z,7.30
2017-12-03T09:38:12.883Z,6.40
2017-12-03T09:39:12.873Z,6.60
2017-12-03T09:40:12.867Z,6.20
2017-12-03T09:41:12.867Z,6.00
2017-12-03T09:42:12.892Z,5.50
2017-12-03T09:43:12.850Z,5.70
2017-12-03T09:44:12.849Z,5.90
2017-12-03T09:45:12.845Z,5.70
2017-12-03T09:46:12.835Z,5.90
2017-12-03T09:47:12.833Z,5.60
2017-12-03T09:48:12.831Z,6.30
2017-12-03T09:49:12.827Z,8.30
2017-12-03T09:50:12.818Z,8.40
2017-12-03T09:51:12.828Z,19.00
2017-12-03T09:52:12.808Z,12.20
2017-12-03T09:53:12.802Z,6.60
2017-12-03T09:54:12.806Z,5.50
2017-12-03T09:55:12.792Z,5.40
2017-12-03T09:56:12.788Z,7.90
2017-12-03T09:57:12.800Z,7.20
2017-12-03T09:58:12.780Z,5.10
2017-12-03T09:59:12.772Z,5.20
2017-12-03T10:00:12.765Z,5.90
2017-12-03T10:01:12.762Z,8.80
2017-12-03T10:02:12.760Z,11.40
2017-12-03T10:03:12.752Z,10.10
2017-12-03T10:04:12.752Z,10.20
2017-12-03T10:05:12.742Z,15.30
2017-12-03T10:06:12.746Z,11.20
2017-12-03T10:07:12.763Z,17.50
2017-12-03T10:08:12.742Z,15.70
2017-12-03T10:09:12.729Z,10.20
2017-12-03T10:10:12.719Z,8.80
2017-12-03T10:11:12.712Z,9.00
2017-12-03T10:12:12.709Z,7.00
2017-12-03T10:13:12.707Z,9.60
2017-12-03T10:14:12.712Z,12.50
2017-12-03T10:15:12.692Z,8.20
2017-12-03T10:16:12.691Z,7.70
2017-12-03T10:17:12.686Z,6.50
2017-12-03T10:18:12.679Z,7.20
2017-12-03T10:19:12.681Z,6.60
2017-12-03T10:21:44.786Z,9.30
2017-12-03T10:22:44.736Z,8.20
2017-12-03T10:23:44.726Z,7.60
2017-12-03T10:24:44.729Z,6.70
2017-12-03T10:25:44.722Z,7.90
2017-12-03T10:26:44.714Z,9.60
2017-12-03T10:27:44.712Z,11.50
2017-12-03T10:28:44.702Z,9.60
2017-12-03T10:29:44.704Z,12.30
2017-12-03T10:30:44.693Z,15.60
2017-12-03T10:31:44.692Z,14.20
2017-12-03T10:32:44.682Z,12.50
2017-12-03T10:33:44.678Z,7.50
2017-12-03T10:34:44.674Z,9.00
2017-12-03T10:35:44.671Z,7.10
2017-12-03T10:36:44.670Z,7.00
2017-12-03T10:37:44.664Z,5.90
2017-12-03T10:38:44.657Z,5.90
2017-12-03T10:39:44.654Z,5.00
2017-12-03T10:40:44.649Z,4.60
2017-12-03T10:41:44.639Z,5.10
2017-12-03T10:42:44.641Z,5.80
2017-12-03T10:43:44.633Z,5.10
2017-12-03T10:44:44.628Z,5.00
2017-12-03T10:45:44.622Z,6.00
2017-12-03T10:46:44.617Z,5.70
2017-12-03T10:47:44.613Z,5.60
2017-12-03T10:48:44.611Z,5.90
2017-12-03T10:49:44.602Z,5.00
2017-12-03T10:50:44.600Z,5.00
2017-12-03T10:51:44.602Z,5.60
2017-12-03T10:52:44.593Z,6.10
2017-12-03T10:53:44.590Z,6.40
2017-12-03T10:54:44.578Z,5.90
2017-12-03T10:55:44.578Z,5.60
2017-12-03T10:56:44.572Z,5.90
2017-12-03T10:57:44.567Z,7.60
2017-12-03T10:58:44.562Z,8.10
2017-12-03T10:59:44.555Z,7.20
2017-12-03T11:00:44.567Z,7.20
2017-12-03T11:01:44.550Z,5.70
2017-12-03T11:02:44.543Z,4.80
2017-12-03T11:03:44.538Z,4.90
2017-12-03T11:04:44.537Z,4.70
2017-12-03T11:05:44.564Z,5.00
2017-12-03T11:06:44.524Z,4.70
2017-12-03T11:07:44.522Z,5.10
2017-12-03T11:08:44.518Z,4.80
2017-12-03T11:09:44.511Z,4.30
2017-12-03T11:10:44.512Z,4.90
2017-12-03T11:11:44.502Z,5.10
2017-12-03T11:12:44.500Z,5.20
2017-12-03T11:13:44.494Z,4.50
2017-12-03T11:14:44.487Z,5.50
2017-12-03T11:15:44.495Z,11.00
2017-12-03T11:16:44.480Z,6.90
2017-12-03T11:17:44.480Z,6.90
2017-12-03T11:18:44.476Z,5.80
2017-12-03T11:19:44.464Z,11.80
2017-12-03T11:20:44.468Z,10.20
2017-12-03T11:21:44.469Z,26.00
2017-12-03T11:22:44.454Z,38.40
2017-12-03T11:23:44.457Z,45.90
2017-12-03T11:24:44.444Z,41.10
2017-12-03T11:25:44.442Z,15.30
2017-12-03T11:26:44.444Z,9.90
2017-12-03T11:27:44.441Z,8.60
2017-12-03T11:28:44.428Z,9.70
2017-12-03T11:29:44.425Z,6.90
2017-12-03T11:30:44.421Z,6.10
2017-12-03T11:31:44.420Z,17.00
2017-12-03T11:32:44.407Z,13.60
2017-12-03T11:33:44.402Z,15.40
2017-12-03T11:34:44.404Z,12.00
2017-12-03T11:35:44.394Z,13.00
2017-12-03T11:36:44.389Z,9.20
2017-12-03T11:37:44.390Z,8.10
2017-12-03T11:38:44.381Z,7.30
2017-12-03T11:39:44.430Z,17.40
2017-12-03T11:40:44.372Z,11.80
2017-12-03T11:41:44.368Z,8.40
2017-12-03T11:42:44.361Z,8.90
2017-12-03T11:43:44.364Z,6.30
2017-12-03T11:44:44.354Z,6.30
2017-12-03T11:45:44.351Z,6.60
2017-12-03T11:46:44.343Z,5.90
2017-12-03T11:47:44.349Z,6.00
2017-12-03T11:48:44.346Z,6.20
2017-12-03T11:49:44.337Z,6.90
2017-12-03T11:50:44.330Z,7.00
2017-12-03T11:51:44.336Z,7.80
2017-12-03T11:52:44.332Z,6.70
2017-12-03T11:53:44.314Z,5.70
2017-12-03T11:54:44.309Z,6.30
2017-12-03T11:55:44.305Z,6.80
2017-12-03T11:56:44.298Z,12.50
2017-12-03T11:57:44.299Z,9.40
2017-12-03T11:58:44.292Z,5.50
2017-12-03T11:59:44.285Z,6.20
2017-12-03T12:00:44.298Z,6.10
2017-12-03T12:01:44.284Z,6.70
2017-12-03T12:02:44.273Z,6.90
2017-12-03T12:03:44.276Z,6.60
2017-12-03T12:04:44.267Z,6.20
2017-12-03T12:05:44.267Z,6.30
2017-12-03T12:06:44.253Z,6.30
2017-12-03T12:07:44.257Z,6.50
2017-12-03T12:08:44.253Z,5.60
2017-12-03T12:09:44.243Z,6.20
2017-12-03T12:10:44.244Z,5.90
2017-12-03T12:11:44.231Z,7.10
2017-12-03T12:12:44.230Z,6.50
2017-12-03T12:13:44.226Z,7.00
2017-12-03T12:14:44.222Z,6.50
2017-12-03T12:15:44.248Z,6.90
2017-12-03T12:16:44.218Z,6.10
2017-12-03T12:17:44.213Z,6.00
2017-12-03T12:18:44.202Z,6.30
2017-12-03T12:19:44.312Z,6.30
2017-12-03T12:20:44.196Z,6.20
2017-12-03T12:21:44.196Z,7.20
2017-12-03T12:22:44.185Z,9.70
2017-12-03T12:23:44.182Z,10.90
2017-12-03T12:24:44.182Z,9.90
2017-12-03T12:25:44.182Z,7.90
2017-12-03T12:26:44.171Z,7.80
2017-12-03T12:27:44.170Z,7.10
2017-12-03T12:28:44.162Z,6.70
2017-12-03T12:29:44.164Z,12.70
2017-12-03T12:30:44.154Z,15.60
2017-12-03T12:31:44.159Z,11.40
2017-12-03T12:32:44.148Z,7.50
2017-12-03T12:33:44.157Z,8.10
2017-12-03T12:34:44.137Z,7.90
2017-12-03T12:35:44.156Z,11.10
2017-12-03T12:36:44.136Z,13.70
2017-12-03T12:37:44.134Z,13.10
2017-12-03T12:38:44.122Z,12.40
2017-12-03T12:39:44.120Z,9.50
2017-12-03T12:40:44.113Z,7.20
2017-12-03T12:41:44.109Z,9.40
2017-12-03T12:42:44.109Z,12.10
2017-12-03T12:43:44.102Z,11.70
2017-12-03T12:44:44.107Z,10.20
2017-12-03T12:45:44.111Z,8.50
2017-12-03T12:46:44.089Z,9.00
2017-12-03T12:47:44.089Z,16.30
2017-12-03T12:48:44.087Z,11.30
2017-12-03T12:49:44.079Z,9.70
2017-12-03T12:50:44.072Z,14.50
2017-12-03T12:51:44.072Z,14.90
2017-12-03T12:52:44.071Z,18.50
2017-12-03T12:53:44.062Z,14.00
2017-12-03T12:54:44.056Z,12.00
2017-12-03T12:55:44.051Z,10.20
2017-12-03T12:56:44.056Z,9.50
2017-12-03T12:57:44.051Z,8.80
2017-12-03T12:58:44.043Z,8.80
2017-12-03T12:59:44.035Z,8.20
2017-12-03T13:00:44.038Z,8.10
2017-12-03T13:01:44.030Z,10.90
2017-12-03T13:02:44.030Z,14.90
2017-12-03T13:03:44.035Z,10.20
2017-12-03T13:04:44.023Z,11.00
2017-12-03T13:05:44.016Z,10.00